Dearborn, MI (48124)

8:24 PM EDT on July 02, 2015 (GMT -0400)
DearbornWeather.com | | Change Station
CLOSE
Current Station
Personal Weather Station
Location: Dearborn, MI
Elevation: 609 ft
Nearby Weather Stations

Elev 609 ft 42.30 °N, 83.25 °W | Updated 13 seconds ago

Partly Cloudy
Partly Cloudy
68.8 °F
Feels Like 68.8 °F
N
0.0
Wind Variable Wind from SE
Gusts 5.0 mph

Today
High -- | Low -- °F
--% Chance of Precip.
Yesterday
High -- | Low -- °F
Precip. -- in
6:00 AM 9:13 PM
Full, 99% visible
Pressure 29.98 in
Visibility 10.0 miles
Clouds Few 5500 ft
Scattered Clouds 25000 ft
Dew Point 48 °F
Humidity 47%
Rainfall 0.00 in
Snow Depth Not available.
UV 1 out of 12
Pollen 2.40 out of 12
Air Quality Not available.
Flu Activity Not available.
METAR KDTW 022353Z 06005KT 10SM FEW055 SCT250 21/10 A2998 RMK AO2 SLP150 T02110100 10244 20211 53002

More Conditions Fewer Conditions

Pressure 29.98 in
Visibility 10.0 miles
Clouds Few 5500 ft
Scattered Clouds 25000 ft
Dew Point 48 °F
Humidity 47%
Rainfall 0.00 in
Snow Depth Not available.
UV 1 out of 12
Pollen 2.40 out of 12
Air Quality Not available.
Flu Activity Not available.
METAR KDTW 022353Z 06005KT 10SM FEW055 SCT250 21/10 A2998 RMK AO2 SLP150 T02110100 10244 20211 53002

More Conditions Fewer Conditions

10-Day Weather Forecast

×

Almanac

Astronomy

Jul. 02, 2015 Rise Set
Actual Time
Civil Twilight
Nautical Twilight
Astronomical Twilight
Moon
Length of Visible Light
Length of Day
Tomorrow will be .
, % of the Moon is Illuminated

Today's Extremes

State Highs State Lows

Community

WunderPhotos

Upload Photos

1,834,576 photos uploaded!

WunderBlogs® & News

Nearby

Air Quality

  Air Quality AQ Index Pollutant
Not available.

Snow Depth

Station Depth Elevation

Earthquake Activity

City Distance Mag. Time & Date
Minimum magnitude displayed is 2.5.

Coastal Water Temperatures

Place Temperature

Stations

Nearby Weather Stations

Station Location Temp. Windchill Dew Point Humidity Wind Precip. Elev Updated Type